Abilene, KS

4:49 AM CDT on September 30, 2014 (GMT -0500)
A.D. Olp Trucking Co | Change Station
CLOSE
Current Station
Personal Weather Station
Location: Abilene, KS
Elevation: 1146 ft
Nearby Weather Stations

Elev 1146 ft 38.90 °N, 97.22 °W | Updated 3 seconds ago

Partly Cloudy
Partly Cloudy
66.3 °F
Feels Like 66.3 °F
N
1.0
Wind Variable Wind from South
Gusts 7.0 mph

Today
High -- | Low -- °F
--% Chance of Precip.
Yesterday
High -- | Low -- °F
Precip. -- in
7:23 AM 7:13 PM
Waxing Crescent, 35% visible
Pressure 29.86 in
Visibility 10.0 miles
Clouds Few 8500 ft
Dew Point 58 °F
Humidity 74%
Rainfall 0.00 in
Snow Depth Not available.
UV 0 out of 12
Pollen 4.80 out of 12
Air Quality Not available.
Flu Activity Not available.
METAR KFRI 300858Z AUTO 16011KT 10SM FEW085 20/15 A2989 RMK AO2 SLP111 T02020149 57014 PWINO PNO $

More Conditions Fewer Conditions

Pressure 29.86 in
Visibility 10.0 miles
Clouds Few 8500 ft
Dew Point 58 °F
Humidity 74%
Rainfall 0.00 in
Snow Depth Not available.
UV 0 out of 12
Pollen 4.80 out of 12
Air Quality Not available.
Flu Activity Not available.
METAR KFRI 300858Z AUTO 16011KT 10SM FEW085 20/15 A2989 RMK AO2 SLP111 T02020149 57014 PWINO PNO $

More Conditions Fewer Conditions

10-Day Weather Forecast

Almanac

Astronomy

Sep. 30, 2014 Rise Set
Actual Time 7:23 AM CDT 7:13 PM CDT
Civil Twilight 6:57 AM CDT 7:39 PM CDT
Nautical Twilight 6:26 AM CDT 8:10 PM CDT
Astronomical Twilight 5:55 AM CDT 8:41 PM CDT
Moon 1:30 PM CDT 11:46 PM CDT
Length of Visible Light 12h 42m
Length of Day
11h 49m
Tomorrow will be 2m 30s shorter.
Waxing Crescent, 35% of the Moon is Illuminated
Today
Waxing Crescent
Oct 1
First Quarter
Oct 8
Full
Oct 15
Last Quarter
Oct 23
New

Today's Extremes

State Highs State Lows

Community

WunderPhotos

Upload Photos

1,757,606 photos uploaded!

Nearby

Snow Depth

Station Depth Elevation
No new snow has been reported.

Earthquake Activity

City Distance Mag. Time & Date
No recent earthquake activity has been reported nearby.
Minimum magnitude displayed is 2.5.

Coastal Water Temperatures

Place Temperature
No Stations Reporting

Nearby Weather Stations